createdAt,value
2024-01-04T00:00:03.721Z,0.60
2024-01-04T00:02:35.665Z,0.60
2024-01-04T00:05:07.259Z,0.97
2024-01-04T00:07:37.187Z,0.50
2024-01-04T00:10:08.097Z,0.50
2024-01-04T00:12:37.817Z,0.50
2024-01-04T00:15:11.337Z,0.50
2024-01-04T00:17:41.114Z,0.50
2024-01-04T00:20:13.270Z,0.53
2024-01-04T00:22:43.136Z,0.53
2024-01-04T00:25:14.191Z,1.07
2024-01-04T00:27:43.779Z,1.03
2024-01-04T00:30:14.009Z,1.70
2024-01-04T00:32:46.647Z,0.97
2024-01-04T00:35:17.116Z,0.87
2024-01-04T00:37:47.119Z,0.90
2024-01-04T00:40:17.050Z,0.70
2024-01-04T00:42:46.712Z,0.93
2024-01-04T00:45:16.999Z,0.80
2024-01-04T00:47:46.755Z,0.80
2024-01-04T00:52:56.868Z,1.00
2024-01-04T00:55:33.274Z,1.23
2024-01-04T00:58:07.766Z,0.80
2024-01-04T01:00:37.331Z,0.97
2024-01-04T01:03:07.402Z,1.33
2024-01-04T01:05:37.194Z,0.90
2024-01-04T01:08:16.245Z,1.07
2024-01-04T01:10:47.098Z,1.33
2024-01-04T01:13:25.271Z,0.80
2024-01-04T01:15:54.954Z,0.80
2024-01-04T01:18:26.212Z,2.30
2024-01-04T01:21:00.195Z,0.83
2024-01-04T01:23:30.884Z,1.47
2024-01-04T01:26:00.972Z,1.57
2024-01-04T01:28:34.281Z,2.60
2024-01-04T01:31:05.543Z,1.03
2024-01-04T01:33:37.394Z,0.83
2024-01-04T01:36:11.877Z,1.77
2024-01-04T01:38:42.197Z,1.20
2024-01-04T01:41:11.823Z,0.87
2024-01-04T01:43:41.349Z,0.80
2024-01-04T01:46:10.945Z,1.20
2024-01-04T01:48:41.107Z,0.80
2024-01-04T01:51:13.207Z,1.20
2024-01-04T01:53:44.325Z,0.90
2024-01-04T01:56:14.248Z,1.20
2024-01-04T01:58:45.385Z,0.90
2024-01-04T02:01:16.184Z,0.80
2024-01-04T02:03:48.622Z,1.20
2024-01-04T02:06:18.710Z,0.70
2024-01-04T02:08:52.327Z,0.90
2024-01-04T02:11:24.331Z,1.20
2024-01-04T02:13:53.881Z,1.13
2024-01-04T02:16:23.687Z,0.80
2024-01-04T02:18:53.638Z,0.90
2024-01-04T02:21:23.898Z,1.43
2024-01-04T02:23:54.261Z,0.73
2024-01-04T02:26:23.858Z,0.70
2024-01-04T02:28:53.478Z,0.77
2024-01-04T02:31:22.945Z,1.57
2024-01-04T02:33:52.562Z,1.17
2024-01-04T02:36:22.179Z,0.90
2024-01-04T02:38:52.249Z,1.10
2024-01-04T02:41:21.971Z,2.40
2024-01-04T02:43:52.324Z,1.30
2024-01-04T02:46:22.096Z,1.43
2024-01-04T02:48:52.283Z,1.33
2024-01-04T02:51:21.963Z,2.10
2024-01-04T02:53:51.556Z,1.20
2024-01-04T02:56:21.619Z,0.67
2024-01-04T02:58:51.412Z,0.70
2024-01-04T03:01:27.703Z,0.80
2024-01-04T03:03:59.394Z,1.10
2024-01-04T03:06:33.415Z,0.93
2024-01-04T03:09:03.160Z,0.80
2024-01-04T03:11:34.027Z,1.83
2024-01-04T03:14:03.535Z,1.17
2024-01-04T03:16:35.568Z,1.30
2024-01-04T03:19:06.138Z,0.80
2024-01-04T03:21:35.908Z,1.07
2024-01-04T03:24:05.658Z,1.33
2024-01-04T03:26:36.147Z,1.10
2024-01-04T03:29:06.095Z,0.97
2024-01-04T03:31:36.220Z,1.47
2024-01-04T03:34:08.373Z,1.13
2024-01-04T03:36:38.189Z,0.80
2024-01-04T03:39:08.699Z,0.90
2024-01-04T03:41:38.340Z,0.80
2024-01-04T03:44:08.670Z,0.83
2024-01-04T03:46:38.283Z,1.00
2024-01-04T03:49:08.571Z,0.70
2024-01-04T03:51:38.088Z,0.87
2024-01-04T03:54:07.734Z,0.60
2024-01-04T03:56:37.362Z,0.90
2024-01-04T03:59:06.960Z,0.70
2024-01-04T04:01:44.906Z,0.77
2024-01-04T04:04:15.846Z,0.80
2024-01-04T04:06:45.820Z,0.80
2024-01-04T04:09:16.229Z,0.53
2024-01-04T04:11:46.967Z,1.43
2024-01-04T04:14:17.015Z,0.60
2024-01-04T04:16:46.588Z,0.70
2024-01-04T04:19:17.635Z,1.00
2024-01-04T04:21:47.415Z,0.53
2024-01-04T04:24:17.311Z,0.67
2024-01-04T04:26:46.945Z,0.50
2024-01-04T04:29:16.508Z,0.70
2024-01-04T04:31:46.170Z,0.60
2024-01-04T04:36:49.981Z,0.80
2024-01-04T04:39:19.647Z,0.50
2024-01-04T04:41:49.358Z,0.80
2024-01-04T04:44:19.048Z,0.50
2024-01-04T04:46:49.325Z,0.93
2024-01-04T04:49:19.003Z,0.63
2024-01-04T04:51:52.609Z,0.60
2024-01-04T04:54:23.197Z,0.97
2024-01-04T04:56:52.930Z,0.60
2024-01-04T04:59:22.516Z,0.70
2024-01-04T05:01:52.401Z,0.67
2024-01-04T05:04:22.791Z,0.53
2024-01-04T05:06:53.920Z,0.70
2024-01-04T05:09:24.318Z,0.50
2024-01-04T05:11:53.946Z,0.60
2024-01-04T05:14:23.737Z,0.70
2024-01-04T05:16:54.047Z,0.73
2024-01-04T05:19:23.796Z,0.93
2024-01-04T05:21:54.374Z,0.80
2024-01-04T05:24:23.958Z,1.03
2024-01-04T05:26:53.582Z,0.90
2024-01-04T05:29:23.055Z,0.60
2024-01-04T05:31:52.721Z,0.70
2024-01-04T05:34:22.525Z,0.80
2024-01-04T05:36:52.519Z,0.73
2024-01-04T05:39:22.128Z,2.00
2024-01-04T05:41:51.712Z,1.00
2024-01-04T05:44:21.497Z,0.87
2024-01-04T05:46:52.673Z,1.30
2024-01-04T05:49:23.071Z,1.00
2024-01-04T05:51:52.846Z,0.87
2024-01-04T05:54:22.451Z,0.70
2024-01-04T05:56:52.467Z,0.53
2024-01-04T05:59:26.908Z,0.60
2024-01-04T06:01:57.410Z,0.97
2024-01-04T06:04:27.588Z,0.73
2024-01-04T06:06:57.055Z,0.90
2024-01-04T06:09:26.868Z,1.10
2024-01-04T06:11:57.595Z,1.00
2024-01-04T06:14:27.557Z,0.60
2024-01-04T06:16:57.648Z,0.57
2024-01-04T06:19:32.103Z,0.57
2024-01-04T06:22:02.057Z,1.13
2024-01-04T06:24:32.007Z,0.73
2024-01-04T06:27:01.800Z,0.60
2024-01-04T06:29:34.324Z,0.70
2024-01-04T06:32:03.861Z,0.70
2024-01-04T06:34:35.169Z,0.70
2024-01-04T06:37:06.406Z,1.20
2024-01-04T06:39:35.981Z,0.90
2024-01-04T06:42:08.716Z,0.53
2024-01-04T06:44:44.409Z,0.50
2024-01-04T06:47:17.959Z,1.90
2024-01-04T06:49:47.729Z,0.60
2024-01-04T06:52:17.860Z,1.30
2024-01-04T06:54:47.412Z,1.10
2024-01-04T06:57:17.470Z,0.77
2024-01-04T06:59:48.013Z,0.83
2024-01-04T07:02:18.603Z,1.23
2024-01-04T07:04:48.287Z,1.20
2024-01-04T07:07:18.002Z,1.50
2024-01-04T07:09:47.910Z,2.00
2024-01-04T07:12:17.564Z,1.70
2024-01-04T07:14:47.089Z,1.63
2024-01-04T07:17:19.514Z,1.17
2024-01-04T07:19:49.672Z,1.53
2024-01-04T07:22:20.721Z,3.27
2024-01-04T07:24:50.589Z,1.80
2024-01-04T07:27:20.308Z,1.73
2024-01-04T07:29:50.228Z,2.27
2024-01-04T07:32:22.083Z,1.53
2024-01-04T07:35:00.634Z,1.30
2024-01-04T07:37:37.604Z,1.20
2024-01-04T07:40:08.424Z,1.80
2024-01-04T07:42:38.076Z,1.20
2024-01-04T07:45:08.609Z,1.60
2024-01-04T07:47:42.479Z,4.47
2024-01-04T07:50:14.454Z,2.20
2024-01-04T07:52:44.395Z,2.43
2024-01-04T07:55:14.091Z,4.47
2024-01-04T07:57:44.330Z,1.53
2024-01-04T08:00:17.284Z,1.70
2024-01-04T08:02:47.085Z,1.57
2024-01-04T08:05:17.609Z,2.80
2024-01-04T08:07:47.327Z,1.83
2024-01-04T08:10:18.011Z,1.70
2024-01-04T08:12:49.901Z,1.70
2024-01-04T08:15:19.628Z,2.13
2024-01-04T08:17:49.397Z,1.10
2024-01-04T08:20:23.013Z,2.10
2024-01-04T08:22:52.501Z,2.03
2024-01-04T08:25:22.504Z,1.27
2024-01-04T08:27:52.643Z,3.50
2024-01-04T08:30:22.805Z,2.73
2024-01-04T08:32:52.592Z,1.27
2024-01-04T08:35:22.440Z,1.70
2024-01-04T08:37:53.399Z,1.73
2024-01-04T08:40:23.273Z,1.30
2024-01-04T08:42:52.750Z,1.10
2024-01-04T08:45:22.594Z,1.63
2024-01-04T08:47:52.824Z,0.90
2024-01-04T08:50:23.938Z,0.90
2024-01-04T08:52:55.007Z,1.17
2024-01-04T08:55:25.088Z,1.47
2024-01-04T08:57:54.956Z,1.23
2024-01-04T09:00:24.828Z,1.80
2024-01-04T09:02:54.582Z,1.40
2024-01-04T09:05:24.904Z,1.63
2024-01-04T09:07:57.034Z,0.90
2024-01-04T09:10:28.216Z,1.40
2024-01-04T09:12:57.672Z,1.67
2024-01-04T09:15:29.481Z,1.80
2024-01-04T09:17:59.632Z,2.20
2024-01-04T09:20:30.071Z,1.30
2024-01-04T09:22:59.590Z,1.30
2024-01-04T09:25:30.691Z,1.20
2024-01-04T09:28:11.260Z,1.10
2024-01-04T09:30:59.597Z,1.17
2024-01-04T09:33:37.017Z,1.20
2024-01-04T09:36:09.863Z,1.00
2024-01-04T09:38:41.770Z,1.47
2024-01-04T09:41:33.175Z,0.80
2024-01-04T09:44:09.798Z,1.17
2024-01-04T09:46:43.617Z,1.53
2024-01-04T09:49:16.290Z,3.80
2024-01-04T09:51:46.381Z,1.63
2024-01-04T09:54:19.219Z,1.90
2024-01-04T09:56:57.322Z,0.90
2024-01-04T09:59:27.641Z,2.50
2024-01-04T10:04:43.116Z,2.53
2024-01-04T10:07:27.823Z,1.70
2024-01-04T10:10:25.926Z,2.83
2024-01-04T10:13:01.641Z,1.90
2024-01-04T10:15:33.258Z,1.70
2024-01-04T10:18:04.386Z,1.70
2024-01-04T10:20:36.367Z,1.20
2024-01-04T10:23:11.258Z,0.93
2024-01-04T10:25:40.908Z,2.03
2024-01-04T10:28:14.906Z,1.80
2024-01-04T10:30:56.629Z,1.87
2024-01-04T10:33:26.290Z,1.57
2024-01-04T10:35:55.997Z,1.87
2024-01-04T10:38:27.269Z,2.53
2024-01-04T10:41:07.233Z,2.67
2024-01-04T10:43:38.754Z,1.73
2024-01-04T10:46:15.290Z,2.23
2024-01-04T10:48:49.003Z,1.93
2024-01-04T10:51:21.118Z,0.90
2024-01-04T10:53:57.526Z,1.37
2024-01-04T10:56:32.491Z,0.90
2024-01-04T10:59:07.067Z,1.27
2024-01-04T11:01:38.503Z,1.90
2024-01-04T11:04:10.177Z,1.23
2024-01-04T11:06:44.425Z,0.70
2024-01-04T11:09:15.466Z,1.40
2024-01-04T11:11:47.751Z,0.70
2024-01-04T11:14:17.443Z,1.73
2024-01-04T11:17:40.945Z,1.27
2024-01-04T11:21:57.686Z,2.13
2024-01-04T11:24:46.304Z,1.07
2024-01-04T11:27:25.569Z,1.63
2024-01-04T11:29:57.347Z,0.90
2024-01-04T11:32:36.015Z,1.10
2024-01-04T11:35:07.573Z,1.60
2024-01-04T11:37:38.528Z,0.70
2024-01-04T11:40:12.650Z,1.00
2024-01-04T11:42:45.732Z,1.03
2024-01-04T11:45:21.513Z,1.77
2024-01-04T11:47:57.105Z,1.27
2024-01-04T11:50:31.915Z,1.97
2024-01-04T11:53:12.139Z,1.13
2024-01-04T11:55:44.501Z,1.13
2024-01-04T11:58:31.734Z,1.27
2024-01-04T12:01:05.907Z,1.10
2024-01-04T12:03:35.676Z,2.13
2024-01-04T12:06:10.940Z,1.03
2024-01-04T12:08:42.018Z,1.37
2024-01-04T12:11:13.250Z,1.10
2024-01-04T12:13:43.717Z,1.67
2024-01-04T12:16:13.443Z,0.97
2024-01-04T12:18:43.205Z,1.57
2024-01-04T12:21:18.779Z,1.03
2024-01-04T12:23:53.951Z,0.70
2024-01-04T12:26:30.331Z,0.70
2024-01-04T12:29:03.667Z,0.50
2024-01-04T12:31:37.589Z,1.20
2024-01-04T12:34:14.117Z,1.27
2024-01-04T12:36:45.078Z,0.60
2024-01-04T12:41:52.336Z,0.50
2024-01-04T12:44:26.085Z,0.83
2024-01-04T12:47:07.828Z,0.70
2024-01-04T12:49:43.252Z,0.70
2024-01-04T12:52:15.995Z,0.50
2024-01-04T12:54:45.899Z,1.10
2024-01-04T12:57:15.898Z,1.43
2024-01-04T12:59:50.774Z,0.90
2024-01-04T13:02:20.904Z,1.27
2024-01-04T13:04:50.474Z,0.77
2024-01-04T13:07:22.486Z,0.93
2024-01-04T13:09:52.141Z,0.80
2024-01-04T13:12:24.894Z,1.10
2024-01-04T13:14:56.623Z,1.20
2024-01-04T13:17:33.693Z,1.43
2024-01-04T13:20:10.367Z,0.60
2024-01-04T13:22:39.979Z,0.70
2024-01-04T13:25:12.819Z,0.83
2024-01-04T13:27:42.843Z,0.80
2024-01-04T13:30:18.724Z,0.80
2024-01-04T13:32:49.289Z,1.07
2024-01-04T13:35:19.709Z,0.73
2024-01-04T13:37:50.312Z,1.23
2024-01-04T13:40:19.971Z,0.90
2024-01-04T13:42:50.878Z,0.87
2024-01-04T13:45:23.500Z,1.07
2024-01-04T13:50:32.338Z,0.70
2024-01-04T13:53:11.735Z,0.97
2024-01-04T13:55:41.917Z,0.67
2024-01-04T13:58:11.546Z,0.80
2024-01-04T14:00:51.648Z,0.60
2024-01-04T14:03:28.813Z,0.70
2024-01-04T14:05:58.706Z,0.70
2024-01-04T14:08:29.863Z,1.53
2024-01-04T14:11:01.563Z,2.47
2024-01-04T14:16:06.335Z,0.90
2024-01-04T14:18:36.459Z,1.20
2024-01-04T14:21:09.049Z,1.17
2024-01-04T14:26:24.716Z,1.57
2024-01-04T14:28:54.603Z,1.67
2024-01-04T14:31:25.189Z,2.50
2024-01-04T14:33:55.292Z,1.20
2024-01-04T14:36:25.343Z,1.63
2024-01-04T14:38:55.490Z,3.63
2024-01-04T14:41:25.669Z,2.30
2024-01-04T14:43:55.572Z,2.70
2024-01-04T14:46:27.812Z,1.70
2024-01-04T14:48:58.465Z,2.30
2024-01-04T14:51:34.155Z,3.33
2024-01-04T14:54:12.469Z,1.43
2024-01-04T14:56:45.633Z,2.87
2024-01-04T14:59:26.489Z,2.70
2024-01-04T15:02:00.006Z,2.23
2024-01-04T15:04:30.700Z,3.27
2024-01-04T15:07:08.215Z,2.43
2024-01-04T15:09:39.256Z,1.87
2024-01-04T15:12:09.008Z,1.10
2024-01-04T15:14:40.572Z,1.43
2024-01-04T15:17:10.563Z,2.10
2024-01-04T15:19:40.264Z,2.80
2024-01-04T15:22:11.033Z,2.90
2024-01-04T15:24:51.545Z,1.67
2024-01-04T15:27:28.449Z,2.33
2024-01-04T15:29:58.989Z,2.90
2024-01-04T15:32:29.328Z,3.37
2024-01-04T15:34:59.282Z,2.23
2024-01-04T15:37:34.798Z,1.63
2024-01-04T15:40:09.203Z,3.63
2024-01-04T15:42:39.132Z,2.50
2024-01-04T15:45:11.313Z,1.70
2024-01-04T15:47:40.953Z,1.73
2024-01-04T15:50:11.637Z,2.73
2024-01-04T15:52:44.505Z,3.40
2024-01-04T15:55:14.524Z,2.50
2024-01-04T15:57:44.087Z,2.70
2024-01-04T16:00:15.093Z,3.67
2024-01-04T16:02:44.731Z,2.70
2024-01-04T16:05:15.270Z,2.83
2024-01-04T16:07:45.349Z,3.13
2024-01-04T16:10:16.962Z,2.87
2024-01-04T16:12:49.904Z,2.07
2024-01-04T16:15:23.448Z,1.80
2024-01-04T16:17:53.581Z,1.23
2024-01-04T16:20:30.828Z,1.20
2024-01-04T16:23:08.375Z,1.20
2024-01-04T16:25:38.257Z,1.10
2024-01-04T16:28:08.498Z,2.30
2024-01-04T16:30:38.237Z,1.30
2024-01-04T16:33:09.991Z,0.90
2024-01-04T16:35:45.109Z,1.53
2024-01-04T16:38:15.145Z,1.30
2024-01-04T16:40:44.866Z,1.63
2024-01-04T16:43:14.983Z,1.10
2024-01-04T16:45:44.704Z,1.00
2024-01-04T16:48:17.153Z,1.13
2024-01-04T16:50:47.842Z,1.10
2024-01-04T16:53:17.818Z,1.30
2024-01-04T16:55:47.442Z,2.20
2024-01-04T16:58:20.754Z,1.13
2024-01-04T17:03:23.579Z,3.00
2024-01-04T17:05:55.307Z,2.00
2024-01-04T17:08:25.635Z,2.20
2024-01-04T17:10:55.860Z,1.40
2024-01-04T17:13:25.733Z,1.80
2024-01-04T17:15:55.203Z,1.90
2024-01-04T17:18:28.428Z,2.60
2024-01-04T17:20:59.528Z,2.00
2024-01-04T17:23:32.254Z,1.43
2024-01-04T17:26:03.817Z,1.73
2024-01-04T17:28:35.180Z,2.50
2024-01-04T17:31:06.214Z,1.53
2024-01-04T17:33:36.178Z,2.53
2024-01-04T17:36:22.443Z,2.03
2024-01-04T17:38:58.755Z,2.53
2024-01-04T17:41:28.281Z,1.90
2024-01-04T17:43:59.550Z,1.87
2024-01-04T17:49:02.714Z,1.70
2024-01-04T17:51:33.274Z,2.00
2024-01-04T17:54:03.766Z,1.50
2024-01-04T17:56:33.533Z,2.37
2024-01-04T17:59:03.242Z,1.87
2024-01-04T18:04:08.481Z,1.93
2024-01-04T18:06:38.171Z,1.53
2024-01-04T18:09:09.309Z,1.60
2024-01-04T18:11:39.900Z,2.50
2024-01-04T18:14:10.669Z,1.63
2024-01-04T18:16:41.045Z,2.17
2024-01-04T18:19:13.079Z,1.30
2024-01-04T18:21:45.173Z,1.90
2024-01-04T18:24:15.432Z,1.90
2024-01-04T18:26:45.012Z,2.33
2024-01-04T18:29:19.179Z,1.73
2024-01-04T18:31:50.149Z,3.13
2024-01-04T18:34:25.101Z,1.97
2024-01-04T18:36:57.296Z,2.13
2024-01-04T18:39:27.623Z,1.63
2024-01-04T18:41:57.330Z,1.43
2024-01-04T18:44:27.035Z,1.50
2024-01-04T18:46:56.608Z,1.87
2024-01-04T18:49:26.193Z,1.37
2024-01-04T18:51:58.897Z,1.07
2024-01-04T18:54:28.561Z,1.80
2024-01-04T18:56:58.902Z,1.53
2024-01-04T18:59:28.618Z,1.03
2024-01-04T19:01:58.325Z,1.53
2024-01-04T19:04:29.817Z,1.33
2024-01-04T19:06:59.622Z,1.10
2024-01-04T19:09:30.227Z,2.20
2024-01-04T19:11:59.750Z,1.87
2024-01-04T19:14:29.389Z,1.60
2024-01-04T19:17:00.246Z,0.90
2024-01-04T19:19:30.968Z,2.37
2024-01-04T19:22:01.192Z,2.27
2024-01-04T19:24:30.787Z,2.67
2024-01-04T19:27:00.383Z,3.20
2024-01-04T19:29:30.261Z,1.97
2024-01-04T19:32:01.835Z,1.63
2024-01-04T19:34:32.003Z,2.63
2024-01-04T19:37:02.661Z,2.70
2024-01-04T19:39:32.353Z,3.57
2024-01-04T19:42:02.058Z,6.63
2024-01-04T19:44:32.312Z,1.53
2024-01-04T19:47:04.012Z,2.00
2024-01-04T19:49:34.617Z,2.20
2024-01-04T19:52:06.061Z,2.47
2024-01-04T19:54:37.423Z,2.97
2024-01-04T19:57:07.386Z,3.20
2024-01-04T19:59:37.219Z,2.77
2024-01-04T20:02:07.273Z,3.90
2024-01-04T20:04:37.469Z,3.43
2024-01-04T20:09:51.206Z,4.30
2024-01-04T20:12:22.456Z,3.57
2024-01-04T20:14:52.916Z,5.17
2024-01-04T20:17:22.953Z,3.30
2024-01-04T20:19:53.694Z,5.10
2024-01-04T20:22:24.312Z,3.90
2024-01-04T20:24:57.364Z,3.97
2024-01-04T20:27:29.117Z,2.23
2024-01-04T20:29:58.689Z,2.27
2024-01-04T20:32:28.405Z,4.53
2024-01-04T20:34:59.881Z,3.67
2024-01-04T20:37:29.585Z,3.27
2024-01-04T20:40:01.375Z,3.80
2024-01-04T20:42:31.400Z,3.50
2024-01-04T20:45:01.891Z,4.60
2024-01-04T20:47:31.924Z,3.00
2024-01-04T20:50:01.794Z,4.30
2024-01-04T20:52:31.938Z,3.80
2024-01-04T20:55:01.414Z,1.90
2024-01-04T20:57:36.163Z,2.40
2024-01-04T21:00:10.118Z,1.57
2024-01-04T21:02:39.655Z,3.73
2024-01-04T21:05:22.053Z,3.20
2024-01-04T21:07:52.459Z,2.73
2024-01-04T21:10:22.145Z,2.80
2024-01-04T21:12:51.766Z,2.53
2024-01-04T21:15:21.985Z,1.73
2024-01-04T21:17:51.738Z,3.10
2024-01-04T21:20:22.029Z,2.47
2024-01-04T21:22:52.511Z,2.50
2024-01-04T21:25:22.248Z,1.57
2024-01-04T21:27:52.456Z,2.50
2024-01-04T21:30:23.064Z,2.20
2024-01-04T21:32:52.859Z,2.17
2024-01-04T21:35:22.496Z,2.00
2024-01-04T21:37:52.144Z,3.37
2024-01-04T21:40:23.048Z,2.97
2024-01-04T21:42:52.711Z,3.00
2024-01-04T21:45:24.338Z,1.37
2024-01-04T21:47:56.232Z,2.23
2024-01-04T21:50:25.835Z,2.40
2024-01-04T21:52:56.157Z,1.70
2024-01-04T21:55:25.577Z,1.83
2024-01-04T21:57:55.484Z,1.80
2024-01-04T22:00:25.410Z,2.73
2024-01-04T22:02:55.531Z,1.70
2024-01-04T22:05:25.055Z,1.90
2024-01-04T22:07:57.607Z,1.40
2024-01-04T22:10:28.687Z,2.13
2024-01-04T22:12:58.688Z,1.63
2024-01-04T22:15:28.297Z,2.53
2024-01-04T22:17:57.979Z,1.47
2024-01-04T22:20:27.663Z,3.27
2024-01-04T22:22:57.419Z,2.13
2024-01-04T22:25:26.780Z,1.80
2024-01-04T22:27:56.231Z,2.00
2024-01-04T22:30:25.874Z,1.07
2024-01-04T22:35:28.699Z,1.20
2024-01-04T22:37:58.318Z,1.10
2024-01-04T22:40:27.829Z,1.30
2024-01-04T22:42:58.144Z,1.00
2024-01-04T22:45:31.306Z,1.33
2024-01-04T22:48:02.930Z,1.60
2024-01-04T22:50:32.689Z,1.70
2024-01-04T22:53:02.375Z,1.33
2024-01-04T22:55:33.155Z,1.10
2024-01-04T22:58:04.260Z,1.00
2024-01-04T23:00:36.552Z,2.17
2024-01-04T23:03:06.456Z,0.80
2024-01-04T23:05:36.208Z,1.03
2024-01-04T23:08:07.663Z,1.60
2024-01-04T23:10:37.564Z,1.73
2024-01-04T23:13:07.468Z,1.97
2024-01-04T23:18:10.874Z,2.43
2024-01-04T23:20:40.643Z,2.60
2024-01-04T23:23:10.193Z,1.47
2024-01-04T23:25:39.890Z,1.87
2024-01-04T23:28:09.515Z,0.97
2024-01-04T23:30:39.001Z,1.50
2024-01-04T23:33:08.723Z,1.17
2024-01-04T23:35:40.668Z,1.23
2024-01-04T23:38:11.957Z,1.03
2024-01-04T23:43:16.606Z,0.70
2024-01-04T23:45:46.295Z,1.20
2024-01-04T23:48:19.614Z,1.23
2024-01-04T23:50:51.706Z,0.77
2024-01-04T23:53:21.440Z,0.80
2024-01-04T23:55:51.209Z,1.70
2024-01-04T23:58:21.023Z,1.80
